Time;durP1;ratioP1;P1;durP2;ratioP2;P2;SDS_P1;SDS_P2;PMS_P1;PMS_P2;Temp;Humidity;BMP_temperature;BMP_pressure;BME280_temperature;BME280_humidity;BME280_pressure;Samples;Min_cycle;Max_cycle;Signal;HPM_P1;HPM_P2
2022/01/23 00:05:12;;;;;;;41.90;19.13;;;;;;;3.88;100.00;102242.38;20897660;28;20110;-66
2022/01/23 00:35:54;;;;;;;45.05;20.83;;;;;;;3.74;100.00;102227.16;20898362;28;20049;-66
2022/01/23 00:46:09;;;;;;;38.92;19.42;;;;;;;3.82;100.00;102230.03;20903612;28;20053;-64
2022/01/23 00:56:11;;;;;;;39.88;20.15;;;;;;;3.79;100.00;102233.41;20896616;28;20037;-64
2022/01/23 01:06:13;;;;;;;40.20;19.75;;;;;;;3.80;100.00;102227.41;21011306;23;20053;-69
2022/01/23 01:36:51;;;;;;;36.90;20.17;;;;;;;3.74;100.00;102219.38;20903904;28;20040;-70
2022/01/23 01:46:53;;;;;;;40.63;21.40;;;;;;;3.77;100.00;102216.91;20906194;28;20052;-69
2022/01/23 02:18:25;;;;;;;37.55;19.83;;;;;;;3.74;100.00;102211.63;20903142;28;20045;-70
2022/01/23 02:58:58;;;;;;;43.65;22.90;;;;;;;3.73;100.00;102194.28;20902309;28;20048;-71
2022/01/23 03:09:49;;;;;;;42.15;22.23;;;;;;;3.69;100.00;102197.59;20896565;28;20071;-70
2022/01/23 03:29:55;;;;;;;43.17;22.33;;;;;;;3.73;100.00;102219.31;20895878;28;20083;-70
2022/01/23 03:39:56;;;;;;;44.90;23.27;;;;;;;3.70;100.00;102224.38;20896717;28;20049;-71
2022/01/23 03:49:58;;;;;;;48.05;23.77;;;;;;;3.67;100.00;102209.56;20897106;28;20111;-70
2022/01/23 03:59:59;;;;;;;44.67;22.60;;;;;;;3.67;100.00;102209.56;20857218;28;1036718;-70
2022/01/23 04:10:01;;;;;;;44.38;22.63;;;;;;;3.68;100.00;102215.63;20898956;28;20049;-70
2022/01/23 05:01:28;;;;;;;42.30;22.40;;;;;;;3.70;100.00;102199.34;20909548;28;20041;-70
2022/01/23 05:11:30;;;;;;;41.33;22.10;;;;;;;3.65;100.00;102202.56;20911332;28;20111;-70
2022/01/23 05:31:45;;;;;;;46.50;23.60;;;;;;;3.65;100.00;102231.06;20906946;28;20114;-70
2022/01/23 05:41:47;;;;;;;49.25;24.98;;;;;;;3.62;100.00;102224.03;20905129;28;20049;-70
2022/01/23 05:51:48;;;;;;;49.55;24.05;;;;;;;3.61;100.00;102227.47;20907591;28;20395;-70
2022/01/23 06:01:56;;;;;;;50.05;24.80;;;;;;;3.51;100.00;102239.13;20906725;28;20048;-70
2022/01/23 06:11:58;;;;;;;47.90;23.35;;;;;;;3.58;100.00;102261.00;20906357;28;20143;-70
2022/01/23 06:21:59;;;;;;;45.33;23.13;;;;;;;3.62;100.00;102257.72;20907337;28;20051;-72
2022/01/23 06:32:02;;;;;;;44.90;23.52;;;;;;;3.58;100.00;102261.00;20904409;28;20049;-72
2022/01/23 06:42:05;;;;;;;52.13;25.83;;;;;;;3.56;100.00;102257.47;20904056;28;20057;-70
2022/01/23 06:52:07;;;;;;;50.72;26.05;;;;;;;3.59;100.00;102279.22;20904371;28;20049;-69
2022/01/23 07:02:09;;;;;;;51.67;25.80;;;;;;;3.59;100.00;102278.28;20924750;23;20110;-69
2022/01/23 07:12:11;;;;;;;54.17;26.30;;;;;;;3.60;100.00;102291.34;20902129;28;20045;-66
2022/01/23 07:22:14;;;;;;;48.15;24.33;;;;;;;3.54;100.00;102297.94;20901867;28;20391;-66
2022/01/23 07:32:15;;;;;;;50.55;24.02;;;;;;;3.56;100.00;102298.91;20899492;28;20464;-64
2022/01/23 07:42:17;;;;;;;55.47;24.38;;;;;;;3.55;100.00;102302.31;20899487;28;20450;-65
2022/01/23 07:52:19;;;;;;;50.30;25.10;;;;;;;3.52;100.00;102333.25;20899179;28;20102;-65
2022/01/23 08:02:22;;;;;;;51.85;25.23;;;;;;;3.56;100.00;102329.97;20894775;28;20049;-65
2022/01/23 08:12:28;;;;;;;52.55;24.85;;;;;;;3.60;100.00;102329.31;20894204;28;20053;-66
2022/01/23 08:22:31;;;;;;;56.88;27.20;;;;;;;3.66;100.00;102346.81;20853480;28;20048;-65
2022/01/23 08:32:32;;;;;;;55.40;28.45;;;;;;;3.74;100.00;102354.09;20845504;28;20099;-65
2022/01/23 08:42:34;;;;;;;56.75;27.27;;;;;;;3.84;100.00;102352.78;20846953;28;20050;-65
2022/01/23 08:52:35;;;;;;;53.80;27.15;;;;;;;3.78;100.00;102349.91;20892618;28;20098;-66
2022/01/23 09:02:37;;;;;;;50.53;25.70;;;;;;;3.82;100.00;102344.94;20909589;28;20099;-67
2022/01/23 09:12:55;;;;;;;51.63;26.17;;;;;;;3.95;100.00;102345.47;20901613;28;20053;-67
2022/01/23 09:22:57;;;;;;;51.83;25.98;;;;;;;4.12;100.00;102344.50;20902231;28;20439;-68
2022/01/23 09:32:59;;;;;;;51.38;27.73;;;;;;;4.33;100.00;102339.28;20857723;28;20076;-67
2022/01/23 09:43:06;;;;;;;52.28;24.63;;;;;;;4.48;100.00;102341.63;20852751;28;20102;-68
2022/01/23 09:53:08;;;;;;;41.28;23.23;;;;;;;4.63;100.00;102350.88;20886018;28;20044;-68
2022/01/23 10:03:10;;;;;;;43.67;22.15;;;;;;;4.69;98.61;102334.66;20894635;28;20053;-68
2022/01/23 10:13:13;;;;;;;50.15;24.85;;;;;;;4.92;98.76;102327.78;20896048;28;20049;-69
2022/01/23 10:23:15;;;;;;;49.75;23.92;;;;;;;5.06;96.66;102325.72;20896890;28;20045;-68
2022/01/23 10:33:27;;;;;;;52.78;27.08;;;;;;;5.10;97.49;102322.41;20895699;28;20072;-68
2022/01/23 10:54:07;;;;;;;48.65;24.63;;;;;;;5.39;94.33;102321.75;20893083;28;20135;-68
2022/01/23 11:04:13;;;;;;;45.13;23.02;;;;;;;5.47;95.56;102327.25;20893568;28;20552;-67
2022/01/23 11:24:45;;;;;;;43.72;22.67;;;;;;;5.59;93.21;102314.69;20890432;28;20056;-66
2022/01/23 11:34:50;;;;;;;49.28;26.83;;;;;;;5.66;93.48;102311.47;20888524;28;20103;-67
2022/01/23 11:55:46;;;;;;;51.85;26.65;;;;;;;5.91;93.93;102286.31;20889096;28;20414;-67
2022/01/23 12:05:50;;;;;;;52.00;27.00;;;;;;;5.88;92.62;102271.50;20865428;28;20045;-67
2022/01/23 12:26:19;;;;;;;57.30;29.13;;;;;;;6.06;92.16;102268.66;20887945;28;20057;-67
2022/01/23 12:36:23;;;;;;;54.22;28.23;;;;;;;6.09;91.08;102265.28;20885111;28;20615;-68
2022/01/23 12:46:34;;;;;;;54.53;27.48;;;;;;;6.09;91.41;102249.69;20890027;28;20414;-68
2022/01/23 12:56:43;;;;;;;48.58;24.65;;;;;;;6.10;90.60;102246.25;20891562;28;20075;-68
2022/01/23 13:06:51;;;;;;;45.13;24.15;;;;;;;6.33;90.22;102244.38;20903182;28;20053;-68
2022/01/23 13:17:24;;;;;;;45.70;23.95;;;;;;;6.24;90.70;102231.06;20902550;28;20048;-68
2022/01/23 13:28:00;;;;;;;48.25;25.15;;;;;;;6.27;92.10;102234.63;20898708;28;20449;-69
2022/01/23 13:37:48;;;;;;;45.33;22.70;;;;;;;6.12;90.16;102218.56;20899267;28;20498;-68
2022/01/23 13:48:06;;;;;;;;;;;;;;;6.18;91.00;102210.97;20893989;28;20504;-68
2022/01/23 13:58:33;;;;;;;44.35;22.98;;;;;;;6.15;90.94;102203.94;20899783;28;19974;-68
2022/01/23 14:08:35;;;;;;;43.45;21.73;;;;;;;6.13;90.87;102199.50;20894824;28;20049;-68
2022/01/23 14:18:36;;;;;;;39.28;20.67;;;;;;;5.95;89.95;102209.34;20896487;28;20044;-68
2022/01/23 14:28:46;;;;;;;40.92;21.33;;;;;;;5.92;90.38;102207.53;20896981;28;20624;-69
2022/01/23 14:39:01;;;;;;;39.47;20.88;;;;;;;6.17;87.96;102201.38;20895688;28;20059;-68
2022/01/23 14:49:10;;;;;;;37.58;19.10;;;;;;;6.05;86.20;102207.09;20895711;28;20482;-68
2022/01/23 14:59:14;;;;;;;34.17;18.48;;;;;;;6.16;85.03;102210.00;20895661;28;20092;-69
2022/01/23 15:09:18;;;;;;;24.70;13.23;;;;;;;6.12;83.08;102213.34;20893496;28;20052;-68
2022/01/23 15:19:20;;;;;;;29.30;15.00;;;;;;;6.12;84.59;102210.75;20888035;28;20118;-68
2022/01/23 15:29:21;;;;;;;30.65;15.90;;;;;;;6.03;84.98;102202.66;20860224;28;20053;-68
2022/01/23 15:39:25;;;;;;;35.45;18.48;;;;;;;5.96;88.65;102198.13;20890648;28;20048;-69
2022/01/23 15:49:26;;;;;;;31.83;17.50;;;;;;;5.85;88.98;102209.03;20892054;28;20399;-68
2022/01/23 15:59:28;;;;;;;37.03;19.13;;;;;;;5.85;89.74;102197.75;20892027;28;20045;-68
2022/01/23 16:09:30;;;;;;;32.17;18.10;;;;;;;5.74;88.30;102207.75;20890440;28;20403;-68
2022/01/23 16:19:32;;;;;;;33.92;17.17;;;;;;;5.62;87.30;102199.56;20890628;28;20045;-68
2022/01/23 16:29:33;;;;;;;34.70;17.40;;;;;;;5.40;85.91;102209.22;20890223;28;20048;-68
2022/01/23 16:39:35;;;;;;;34.65;19.42;;;;;;;5.24;88.82;102222.53;20901537;28;20102;-68
2022/01/23 16:49:37;;;;;;;32.42;16.48;;;;;;;5.32;84.50;102210.69;20898892;28;20095;-68
2022/01/23 16:59:38;;;;;;;35.58;18.20;;;;;;;5.20;84.53;102214.56;20901902;28;20045;-68
2022/01/23 17:09:40;;;;;;;51.40;33.70;;;;;;;5.10;82.02;102221.16;20902218;28;20091;-68
2022/01/23 17:19:41;;;;;;;18.83;10.18;;;;;;;5.13;77.41;102223.88;20899545;28;20564;-68
2022/01/23 17:29:45;;;;;;;16.42;9.60;;;;;;;4.97;76.22;102205.94;20897284;28;20059;-70
2022/01/23 17:39:46;;;;;;;19.70;10.95;;;;;;;4.78;77.18;102194.91;20901454;28;20143;-68
2022/01/23 17:49:55;;;;;;;60.63;28.83;;;;;;;4.72;76.51;102199.88;20899489;28;20057;-68
2022/01/23 17:59:56;;;;;;;12.20;6.18;;;;;;;4.56;76.17;102192.34;20897937;28;20056;-68
2022/01/23 18:09:58;;;;;;;70.03;29.95;;;;;;;4.35;77.68;102182.91;20889785;28;20057;-68
2022/01/23 18:20:00;;;;;;;26.55;14.55;;;;;;;4.18;78.11;102189.19;20896846;28;20106;-68
2022/01/23 18:30:04;;;;;;;22.17;12.70;;;;;;;4.05;78.72;102202.47;20896241;28;20741;-68
2022/01/23 18:40:08;;;;;;;45.43;20.43;;;;;;;4.30;77.04;102202.59;20894299;28;20490;-68
2022/01/23 18:50:30;;;;;;;17.20;10.38;;;;;;;4.49;76.01;102208.50;20894376;28;20407;-68
2022/01/23 19:00:36;;;;;;;19.27;7.88;;;;;;;4.38;77.34;102193.41;20854758;28;20387;-68
2022/01/23 19:10:41;;;;;;;14.73;8.48;;;;;;;4.38;76.32;102195.13;20834977;28;20044;-67
2022/01/23 19:20:42;;;;;;;21.23;9.85;;;;;;;4.38;78.13;102192.53;20887815;28;20087;-67
2022/01/23 19:30:44;;;;;;;19.38;9.13;;;;;;;4.39;78.46;102196.88;20891015;28;20090;-67
2022/01/23 19:50:49;;;;;;;15.32;9.20;;;;;;;4.55;77.90;102200.94;20890916;28;20486;-67
2022/01/23 20:00:54;;;;;;;14.52;7.20;;;;;;;4.52;77.17;102196.53;20889746;28;20041;-68
2022/01/23 20:11:10;;;;;;;17.45;9.80;;;;;;;4.30;80.83;102200.00;20903714;28;20106;-67
2022/01/23 20:21:14;;;;;;;18.30;9.77;;;;;;;4.19;79.83;102201.31;20908260;28;20106;-66
2022/01/23 20:31:35;;;;;;;17.85;8.35;;;;;;;3.95;80.81;102215.88;20903665;28;20084;-66
2022/01/23 20:41:37;;;;;;;14.05;7.22;;;;;;;3.73;84.26;102206.34;20904313;28;20055;-68
2022/01/23 20:51:48;;;;;;;14.75;7.95;;;;;;;3.65;85.97;102206.06;20903418;28;20053;-66
2022/01/23 21:01:49;;;;;;;18.50;9.73;;;;;;;3.69;85.33;102213.13;20901984;28;20045;-67
2022/01/23 21:11:51;;;;;;;20.33;10.52;;;;;;;3.78;84.08;102220.38;20902357;28;20076;-67
2022/01/23 21:42:22;;;;;;;15.77;7.95;;;;;;;3.81;82.47;102202.38;20898677;28;20049;-67
2022/01/23 21:52:24;;;;;;;15.98;7.63;;;;;;;3.60;84.12;102199.78;20900553;28;20056;-67
2022/01/23 22:02:26;;;;;;;15.95;9.30;;;;;;;3.43;85.27;102198.19;20898578;28;20106;-66
2022/01/23 22:33:04;;;;;;;19.35;10.75;;;;;;;2.83;89.10;102206.84;20895071;28;20049;-67
2022/01/23 22:43:06;;;;;;;17.73;9.23;;;;;;;2.70;88.67;102207.09;20895881;28;20106;-68
2022/01/23 22:53:07;;;;;;;16.00;8.30;;;;;;;2.80;88.88;102214.47;20893869;28;20045;-67
2022/01/23 23:03:11;;;;;;;17.80;7.97;;;;;;;2.86;88.50;102208.66;20894183;28;20041;-67
2022/01/23 23:13:20;;;;;;;15.93;8.80;;;;;;;2.74;89.47;102211.59;20900830;28;20081;-68
2022/01/23 23:23:22;;;;;;;17.38;8.02;;;;;;;2.66;90.26;102199.13;20900348;28;20052;-67
2022/01/23 23:33:23;;;;;;;16.67;8.57;;;;;;;2.46;91.50;102186.19;20900290;28;20048;-67
2022/01/23 23:43:36;;;;;;;17.63;8.55;;;;;;;2.28;93.19;102190.50;20899638;28;20084;-68
2022/01/23 23:53:37;;;;;;;18.15;8.90;;;;;;;2.17;93.95;102177.09;20901177;28;20052;-67
